sensor_id;sensor_type;location;lat;lon;timestamp;P1;durP1;ratioP1;P2;durP2;ratioP2
4430;SDS011;2228;48.140;11.488;2024-02-15T00:01:17;2.83;;;1.25;;
4430;SDS011;2228;48.140;11.488;2024-02-15T00:03:44;1.48;;;1.13;;
4430;SDS011;2228;48.140;11.488;2024-02-15T00:06:13;1.65;;;1.10;;
4430;SDS011;2228;48.140;11.488;2024-02-15T00:08:40;3.73;;;1.10;;
4430;SDS011;2228;48.140;11.488;2024-02-15T00:11:07;1.20;;;1.00;;
4430;SDS011;2228;48.140;11.488;2024-02-15T00:13:35;1.63;;;1.10;;
4430;SDS011;2228;48.140;11.488;2024-02-15T00:16:03;2.00;;;1.08;;
4430;SDS011;2228;48.140;11.488;2024-02-15T00:18:31;1.67;;;1.00;;
4430;SDS011;2228;48.140;11.488;2024-02-15T00:20:59;4.47;;;1.50;;
4430;SDS011;2228;48.140;11.488;2024-02-15T00:23:28;8.75;;;1.10;;
4430;SDS011;2228;48.140;11.488;2024-02-15T00:25:57;2.63;;;1.40;;
4430;SDS011;2228;48.140;11.488;2024-02-15T00:28:24;3.30;;;1.23;;
4430;SDS011;2228;48.140;11.488;2024-02-15T00:30:53;3.97;;;1.00;;
4430;SDS011;2228;48.140;11.488;2024-02-15T00:33:23;2.30;;;1.20;;
4430;SDS011;2228;48.140;11.488;2024-02-15T00:35:50;2.00;;;1.30;;
4430;SDS011;2228;48.140;11.488;2024-02-15T00:38:18;1.55;;;1.08;;
4430;SDS011;2228;48.140;11.488;2024-02-15T00:40:47;2.92;;;1.15;;
4430;SDS011;2228;48.140;11.488;2024-02-15T00:43:14;2.33;;;1.58;;
4430;SDS011;2228;48.140;11.488;2024-02-15T00:45:41;1.65;;;1.10;;
4430;SDS011;2228;48.140;11.488;2024-02-15T00:48:09;1.90;;;1.20;;
4430;SDS011;2228;48.140;11.488;2024-02-15T00:50:36;2.90;;;1.03;;
4430;SDS011;2228;48.140;11.488;2024-02-15T00:53:03;1.70;;;1.10;;
4430;SDS011;2228;48.140;11.488;2024-02-15T00:55:31;2.28;;;1.30;;
4430;SDS011;2228;48.140;11.488;2024-02-15T00:58:00;2.00;;;1.10;;
4430;SDS011;2228;48.140;11.488;2024-02-15T01:00:27;1.73;;;1.05;;
4430;SDS011;2228;48.140;11.488;2024-02-15T01:02:55;1.92;;;1.13;;
4430;SDS011;2228;48.140;11.488;2024-02-15T01:05:23;1.90;;;1.00;;
4430;SDS011;2228;48.140;11.488;2024-02-15T01:07:50;2.40;;;1.20;;
4430;SDS011;2228;48.140;11.488;2024-02-15T01:10:17;2.85;;;1.10;;
4430;SDS011;2228;48.140;11.488;2024-02-15T01:12:45;2.93;;;1.20;;
4430;SDS011;2228;48.140;11.488;2024-02-15T01:15:15;2.25;;;1.13;;
4430;SDS011;2228;48.140;11.488;2024-02-15T01:17:45;1.65;;;0.98;;
4430;SDS011;2228;48.140;11.488;2024-02-15T01:20:12;1.88;;;1.20;;
4430;SDS011;2228;48.140;11.488;2024-02-15T01:22:39;2.72;;;1.10;;
4430;SDS011;2228;48.140;11.488;2024-02-15T01:25:07;1.98;;;1.10;;
4430;SDS011;2228;48.140;11.488;2024-02-15T01:27:35;2.72;;;1.10;;
4430;SDS011;2228;48.140;11.488;2024-02-15T01:30:03;3.50;;;1.10;;
4430;SDS011;2228;48.140;11.488;2024-02-15T01:32:32;1.98;;;1.00;;
4430;SDS011;2228;48.140;11.488;2024-02-15T01:34:59;2.30;;;1.00;;
4430;SDS011;2228;48.140;11.488;2024-02-15T01:37:26;2.10;;;1.10;;
4430;SDS011;2228;48.140;11.488;2024-02-15T01:39:53;1.48;;;1.10;;
4430;SDS011;2228;48.140;11.488;2024-02-15T01:42:20;3.30;;;1.50;;
4430;SDS011;2228;48.140;11.488;2024-02-15T01:44:48;5.03;;;1.20;;
4430;SDS011;2228;48.140;11.488;2024-02-15T01:47:15;2.80;;;1.15;;
4430;SDS011;2228;48.140;11.488;2024-02-15T01:49:48;1.98;;;1.10;;
4430;SDS011;2228;48.140;11.488;2024-02-15T01:52:16;8.00;;;1.20;;
4430;SDS011;2228;48.140;11.488;2024-02-15T01:54:44;1.98;;;1.00;;
4430;SDS011;2228;48.140;11.488;2024-02-15T01:57:11;1.50;;;1.10;;
4430;SDS011;2228;48.140;11.488;2024-02-15T01:59:39;2.15;;;1.10;;
4430;SDS011;2228;48.140;11.488;2024-02-15T02:02:08;2.67;;;1.20;;
4430;SDS011;2228;48.140;11.488;2024-02-15T02:04:36;2.13;;;1.40;;
4430;SDS011;2228;48.140;11.488;2024-02-15T02:07:05;2.75;;;1.25;;
4430;SDS011;2228;48.140;11.488;2024-02-15T02:09:33;1.93;;;1.27;;
4430;SDS011;2228;48.140;11.488;2024-02-15T02:12:00;2.85;;;1.10;;
4430;SDS011;2228;48.140;11.488;2024-02-15T02:14:28;2.60;;;1.30;;
4430;SDS011;2228;48.140;11.488;2024-02-15T02:16:58;1.77;;;1.10;;
4430;SDS011;2228;48.140;11.488;2024-02-15T02:19:37;2.50;;;1.30;;
4430;SDS011;2228;48.140;11.488;2024-02-15T02:22:06;1.60;;;1.00;;
4430;SDS011;2228;48.140;11.488;2024-02-15T02:24:36;1.77;;;0.90;;
4430;SDS011;2228;48.140;11.488;2024-02-15T02:27:07;1.58;;;1.13;;
4430;SDS011;2228;48.140;11.488;2024-02-15T02:29:35;1.80;;;1.10;;
4430;SDS011;2228;48.140;11.488;2024-02-15T02:32:03;3.08;;;1.60;;
4430;SDS011;2228;48.140;11.488;2024-02-15T02:34:30;2.53;;;1.30;;
4430;SDS011;2228;48.140;11.488;2024-02-15T02:36:58;3.70;;;1.30;;
4430;SDS011;2228;48.140;11.488;2024-02-15T02:39:30;1.55;;;1.00;;
4430;SDS011;2228;48.140;11.488;2024-02-15T02:41:57;1.80;;;1.10;;
4430;SDS011;2228;48.140;11.488;2024-02-15T02:44:26;1.70;;;1.20;;
4430;SDS011;2228;48.140;11.488;2024-02-15T02:46:54;1.50;;;1.10;;
4430;SDS011;2228;48.140;11.488;2024-02-15T02:52:49;4.10;;;1.10;;
4430;SDS011;2228;48.140;11.488;2024-02-15T02:55:17;2.90;;;1.40;;
4430;SDS011;2228;48.140;11.488;2024-02-15T02:57:44;3.15;;;1.30;;
4430;SDS011;2228;48.140;11.488;2024-02-15T03:00:13;2.25;;;1.30;;
4430;SDS011;2228;48.140;11.488;2024-02-15T03:02:41;2.00;;;1.20;;
4430;SDS011;2228;48.140;11.488;2024-02-15T03:05:09;1.57;;;1.13;;
4430;SDS011;2228;48.140;11.488;2024-02-15T03:07:37;1.70;;;1.20;;
4430;SDS011;2228;48.140;11.488;2024-02-15T03:10:06;2.72;;;1.10;;
4430;SDS011;2228;48.140;11.488;2024-02-15T03:12:34;3.00;;;1.75;;
4430;SDS011;2228;48.140;11.488;2024-02-15T03:15:02;2.53;;;1.13;;
4430;SDS011;2228;48.140;11.488;2024-02-15T03:17:30;2.90;;;1.20;;
4430;SDS011;2228;48.140;11.488;2024-02-15T03:19:58;3.20;;;1.40;;
4430;SDS011;2228;48.140;11.488;2024-02-15T03:22:27;2.00;;;1.20;;
4430;SDS011;2228;48.140;11.488;2024-02-15T03:24:54;2.65;;;1.40;;
4430;SDS011;2228;48.140;11.488;2024-02-15T03:27:23;2.33;;;1.30;;
4430;SDS011;2228;48.140;11.488;2024-02-15T03:29:51;1.98;;;1.30;;
4430;SDS011;2228;48.140;11.488;2024-02-15T03:32:18;2.50;;;1.38;;
4430;SDS011;2228;48.140;11.488;2024-02-15T03:34:46;4.57;;;1.35;;
4430;SDS011;2228;48.140;11.488;2024-02-15T03:37:14;1.80;;;1.38;;
4430;SDS011;2228;48.140;11.488;2024-02-15T03:39:41;2.88;;;1.30;;
4430;SDS011;2228;48.140;11.488;2024-02-15T03:42:08;3.63;;;1.20;;
4430;SDS011;2228;48.140;11.488;2024-02-15T03:44:35;2.50;;;1.60;;
4430;SDS011;2228;48.140;11.488;2024-02-15T03:47:03;2.30;;;1.10;;
4430;SDS011;2228;48.140;11.488;2024-02-15T03:49:31;3.70;;;1.83;;
4430;SDS011;2228;48.140;11.488;2024-02-15T03:51:59;1.63;;;1.20;;
4430;SDS011;2228;48.140;11.488;2024-02-15T03:54:26;3.78;;;1.60;;
4430;SDS011;2228;48.140;11.488;2024-02-15T03:56:55;2.80;;;1.63;;
4430;SDS011;2228;48.140;11.488;2024-02-15T03:59:22;2.10;;;1.37;;
4430;SDS011;2228;48.140;11.488;2024-02-15T04:01:52;2.10;;;1.40;;
4430;SDS011;2228;48.140;11.488;2024-02-15T04:04:19;2.70;;;1.80;;
4430;SDS011;2228;48.140;11.488;2024-02-15T04:06:47;5.00;;;1.50;;
4430;SDS011;2228;48.140;11.488;2024-02-15T04:09:15;2.92;;;1.60;;
4430;SDS011;2228;48.140;11.488;2024-02-15T04:11:43;2.80;;;1.50;;
4430;SDS011;2228;48.140;11.488;2024-02-15T04:14:12;2.90;;;1.80;;
4430;SDS011;2228;48.140;11.488;2024-02-15T04:16:39;2.25;;;1.40;;
4430;SDS011;2228;48.140;11.488;2024-02-15T04:19:06;2.00;;;1.42;;
4430;SDS011;2228;48.140;11.488;2024-02-15T04:21:33;2.08;;;1.20;;
4430;SDS011;2228;48.140;11.488;2024-02-15T04:24:01;3.00;;;1.48;;
4430;SDS011;2228;48.140;11.488;2024-02-15T04:26:30;3.33;;;1.70;;
4430;SDS011;2228;48.140;11.488;2024-02-15T04:28:58;5.78;;;1.75;;
4430;SDS011;2228;48.140;11.488;2024-02-15T04:31:28;3.30;;;1.50;;
4430;SDS011;2228;48.140;11.488;2024-02-15T04:33:56;3.83;;;1.70;;
4430;SDS011;2228;48.140;11.488;2024-02-15T04:36:24;3.08;;;1.58;;
4430;SDS011;2228;48.140;11.488;2024-02-15T04:38:51;3.72;;;1.60;;
4430;SDS011;2228;48.140;11.488;2024-02-15T04:41:19;2.25;;;1.40;;
4430;SDS011;2228;48.140;11.488;2024-02-15T04:43:49;2.50;;;1.50;;
4430;SDS011;2228;48.140;11.488;2024-02-15T04:46:17;1.92;;;1.30;;
4430;SDS011;2228;48.140;11.488;2024-02-15T04:48:47;3.60;;;1.48;;
4430;SDS011;2228;48.140;11.488;2024-02-15T04:51:15;2.00;;;1.20;;
4430;SDS011;2228;48.140;11.488;2024-02-15T04:53:44;2.30;;;1.33;;
4430;SDS011;2228;48.140;11.488;2024-02-15T04:56:13;3.97;;;1.88;;
4430;SDS011;2228;48.140;11.488;2024-02-15T04:58:41;3.22;;;1.70;;
4430;SDS011;2228;48.140;11.488;2024-02-15T05:01:13;3.63;;;1.90;;
4430;SDS011;2228;48.140;11.488;2024-02-15T05:03:41;2.25;;;1.35;;
4430;SDS011;2228;48.140;11.488;2024-02-15T05:06:08;1.98;;;1.20;;
4430;SDS011;2228;48.140;11.488;2024-02-15T05:08:40;3.50;;;1.50;;
4430;SDS011;2228;48.140;11.488;2024-02-15T05:11:08;2.90;;;1.45;;
4430;SDS011;2228;48.140;11.488;2024-02-15T05:13:40;1.95;;;1.23;;
4430;SDS011;2228;48.140;11.488;2024-02-15T05:16:07;3.30;;;1.42;;
4430;SDS011;2228;48.140;11.488;2024-02-15T05:18:36;3.08;;;1.30;;
4430;SDS011;2228;48.140;11.488;2024-02-15T05:21:05;2.10;;;1.20;;
4430;SDS011;2228;48.140;11.488;2024-02-15T05:23:34;3.10;;;1.30;;
4430;SDS011;2228;48.140;11.488;2024-02-15T05:26:03;3.67;;;1.40;;
4430;SDS011;2228;48.140;11.488;2024-02-15T05:28:30;1.90;;;1.30;;
4430;SDS011;2228;48.140;11.488;2024-02-15T05:33:44;2.50;;;1.42;;
4430;SDS011;2228;48.140;11.488;2024-02-15T05:36:12;2.60;;;1.10;;
4430;SDS011;2228;48.140;11.488;2024-02-15T05:38:40;2.10;;;1.20;;
4430;SDS011;2228;48.140;11.488;2024-02-15T05:41:10;5.43;;;1.20;;
4430;SDS011;2228;48.140;11.488;2024-02-15T05:43:38;2.88;;;1.38;;
4430;SDS011;2228;48.140;11.488;2024-02-15T05:46:06;2.08;;;1.20;;
4430;SDS011;2228;48.140;11.488;2024-02-15T05:48:34;4.38;;;1.42;;
4430;SDS011;2228;48.140;11.488;2024-02-15T05:51:03;3.72;;;1.30;;
4430;SDS011;2228;48.140;11.488;2024-02-15T05:53:30;4.78;;;1.70;;
4430;SDS011;2228;48.140;11.488;2024-02-15T05:56:01;3.95;;;1.48;;
4430;SDS011;2228;48.140;11.488;2024-02-15T05:58:29;5.70;;;1.30;;
4430;SDS011;2228;48.140;11.488;2024-02-15T06:00:57;2.15;;;1.30;;
4430;SDS011;2228;48.140;11.488;2024-02-15T06:03:27;3.50;;;1.73;;
4430;SDS011;2228;48.140;11.488;2024-02-15T06:05:54;4.78;;;1.50;;
4430;SDS011;2228;48.140;11.488;2024-02-15T06:08:25;6.10;;;1.92;;
4430;SDS011;2228;48.140;11.488;2024-02-15T06:10:52;4.82;;;1.90;;
4430;SDS011;2228;48.140;11.488;2024-02-15T06:13:20;4.00;;;2.17;;
4430;SDS011;2228;48.140;11.488;2024-02-15T06:15:48;3.40;;;1.92;;
4430;SDS011;2228;48.140;11.488;2024-02-15T06:18:18;3.80;;;1.90;;
4430;SDS011;2228;48.140;11.488;2024-02-15T06:20:46;6.03;;;2.38;;
4430;SDS011;2228;48.140;11.488;2024-02-15T06:23:15;4.63;;;2.20;;
4430;SDS011;2228;48.140;11.488;2024-02-15T06:25:47;5.20;;;2.25;;
4430;SDS011;2228;48.140;11.488;2024-02-15T06:28:14;3.80;;;2.20;;
4430;SDS011;2228;48.140;11.488;2024-02-15T06:31:06;4.70;;;2.60;;
4430;SDS011;2228;48.140;11.488;2024-02-15T06:33:51;3.53;;;2.30;;
4430;SDS011;2228;48.140;11.488;2024-02-15T06:36:39;4.38;;;2.10;;
4430;SDS011;2228;48.140;11.488;2024-02-15T06:39:24;5.43;;;2.15;;
4430;SDS011;2228;48.140;11.488;2024-02-15T06:42:13;4.82;;;2.63;;
4430;SDS011;2228;48.140;11.488;2024-02-15T06:44:42;5.80;;;2.60;;
4430;SDS011;2228;48.140;11.488;2024-02-15T06:47:09;3.53;;;1.95;;
4430;SDS011;2228;48.140;11.488;2024-02-15T06:49:37;5.80;;;2.10;;
4430;SDS011;2228;48.140;11.488;2024-02-15T06:52:05;6.30;;;2.22;;
4430;SDS011;2228;48.140;11.488;2024-02-15T06:54:32;6.22;;;1.85;;
4430;SDS011;2228;48.140;11.488;2024-02-15T06:57:00;2.92;;;1.80;;
4430;SDS011;2228;48.140;11.488;2024-02-15T06:59:31;2.22;;;1.70;;
4430;SDS011;2228;48.140;11.488;2024-02-15T07:01:59;2.87;;;1.70;;
4430;SDS011;2228;48.140;11.488;2024-02-15T07:04:27;4.75;;;1.83;;
4430;SDS011;2228;48.140;11.488;2024-02-15T07:06:54;4.00;;;2.20;;
4430;SDS011;2228;48.140;11.488;2024-02-15T07:09:23;2.78;;;1.70;;
4430;SDS011;2228;48.140;11.488;2024-02-15T07:11:50;3.93;;;1.60;;
4430;SDS011;2228;48.140;11.488;2024-02-15T07:14:17;4.60;;;1.60;;
4430;SDS011;2228;48.140;11.488;2024-02-15T07:16:46;4.53;;;1.63;;
4430;SDS011;2228;48.140;11.488;2024-02-15T07:19:14;5.25;;;1.50;;
4430;SDS011;2228;48.140;11.488;2024-02-15T07:21:42;2.50;;;1.40;;
4430;SDS011;2228;48.140;11.488;2024-02-15T07:24:13;5.50;;;1.80;;
4430;SDS011;2228;48.140;11.488;2024-02-15T07:26:40;3.70;;;1.30;;
4430;SDS011;2228;48.140;11.488;2024-02-15T07:29:07;2.58;;;1.90;;
4430;SDS011;2228;48.140;11.488;2024-02-15T07:31:36;2.88;;;1.38;;
4430;SDS011;2228;48.140;11.488;2024-02-15T07:34:05;2.40;;;1.17;;
4430;SDS011;2228;48.140;11.488;2024-02-15T07:36:33;3.58;;;1.50;;
4430;SDS011;2228;48.140;11.488;2024-02-15T07:39:01;5.30;;;1.50;;
4430;SDS011;2228;48.140;11.488;2024-02-15T07:41:29;4.17;;;1.50;;
4430;SDS011;2228;48.140;11.488;2024-02-15T07:43:58;7.88;;;1.30;;
4430;SDS011;2228;48.140;11.488;2024-02-15T07:46:26;7.60;;;1.70;;
4430;SDS011;2228;48.140;11.488;2024-02-15T07:48:54;7.40;;;2.00;;
4430;SDS011;2228;48.140;11.488;2024-02-15T07:51:23;3.35;;;1.30;;
4430;SDS011;2228;48.140;11.488;2024-02-15T07:53:51;3.78;;;1.10;;
4430;SDS011;2228;48.140;11.488;2024-02-15T07:56:18;6.63;;;1.30;;
4430;SDS011;2228;48.140;11.488;2024-02-15T07:58:47;12.60;;;2.10;;
4430;SDS011;2228;48.140;11.488;2024-02-15T08:01:17;5.25;;;1.42;;
4430;SDS011;2228;48.140;11.488;2024-02-15T08:03:46;3.72;;;1.20;;
4430;SDS011;2228;48.140;11.488;2024-02-15T08:06:14;3.67;;;1.33;;
4430;SDS011;2228;48.140;11.488;2024-02-15T08:08:43;3.75;;;1.45;;
4430;SDS011;2228;48.140;11.488;2024-02-15T08:11:11;1.73;;;1.10;;
4430;SDS011;2228;48.140;11.488;2024-02-15T08:13:42;7.10;;;1.30;;
4430;SDS011;2228;48.140;11.488;2024-02-15T08:16:12;2.75;;;1.30;;
4430;SDS011;2228;48.140;11.488;2024-02-15T08:18:41;7.70;;;1.40;;
4430;SDS011;2228;48.140;11.488;2024-02-15T08:21:11;7.43;;;1.50;;
4430;SDS011;2228;48.140;11.488;2024-02-15T08:23:38;9.02;;;1.30;;
4430;SDS011;2228;48.140;11.488;2024-02-15T08:26:07;4.90;;;1.40;;
4430;SDS011;2228;48.140;11.488;2024-02-15T08:28:36;9.98;;;2.10;;
4430;SDS011;2228;48.140;11.488;2024-02-15T08:31:03;3.42;;;1.30;;
4430;SDS011;2228;48.140;11.488;2024-02-15T08:33:36;4.10;;;1.60;;
4430;SDS011;2228;48.140;11.488;2024-02-15T08:36:04;4.90;;;1.60;;
4430;SDS011;2228;48.140;11.488;2024-02-15T08:38:32;7.30;;;1.20;;
4430;SDS011;2228;48.140;11.488;2024-02-15T08:41:02;5.70;;;1.65;;
4430;SDS011;2228;48.140;11.488;2024-02-15T08:43:31;7.50;;;2.00;;
4430;SDS011;2228;48.140;11.488;2024-02-15T08:45:59;8.30;;;1.40;;
4430;SDS011;2228;48.140;11.488;2024-02-15T08:48:26;7.82;;;1.48;;
4430;SDS011;2228;48.140;11.488;2024-02-15T08:50:55;4.63;;;1.10;;
4430;SDS011;2228;48.140;11.488;2024-02-15T08:53:23;4.47;;;1.27;;
4430;SDS011;2228;48.140;11.488;2024-02-15T08:55:50;6.40;;;1.30;;
4430;SDS011;2228;48.140;11.488;2024-02-15T08:58:19;7.40;;;1.40;;
4430;SDS011;2228;48.140;11.488;2024-02-15T09:00:48;3.63;;;1.37;;
4430;SDS011;2228;48.140;11.488;2024-02-15T09:03:19;3.65;;;1.55;;
4430;SDS011;2228;48.140;11.488;2024-02-15T09:05:46;4.97;;;1.55;;
4430;SDS011;2228;48.140;11.488;2024-02-15T09:08:14;2.72;;;1.30;;
4430;SDS011;2228;48.140;11.488;2024-02-15T09:10:45;4.82;;;1.90;;
4430;SDS011;2228;48.140;11.488;2024-02-15T09:13:13;6.70;;;1.40;;
4430;SDS011;2228;48.140;11.488;2024-02-15T09:15:40;7.00;;;1.23;;
4430;SDS011;2228;48.140;11.488;2024-02-15T09:18:09;1.93;;;1.20;;
4430;SDS011;2228;48.140;11.488;2024-02-15T09:20:36;1.90;;;1.40;;
4430;SDS011;2228;48.140;11.488;2024-02-15T09:23:09;4.10;;;1.30;;
4430;SDS011;2228;48.140;11.488;2024-02-15T09:25:38;3.97;;;1.23;;
4430;SDS011;2228;48.140;11.488;2024-02-15T09:28:05;2.55;;;1.30;;
4430;SDS011;2228;48.140;11.488;2024-02-15T09:30:36;5.90;;;1.50;;
4430;SDS011;2228;48.140;11.488;2024-02-15T09:33:04;5.40;;;1.60;;
4430;SDS011;2228;48.140;11.488;2024-02-15T09:35:33;1.60;;;1.20;;
4430;SDS011;2228;48.140;11.488;2024-02-15T09:38:00;2.53;;;1.20;;
4430;SDS011;2228;48.140;11.488;2024-02-15T09:40:28;4.63;;;1.10;;
4430;SDS011;2228;48.140;11.488;2024-02-15T09:42:55;4.30;;;1.10;;
4430;SDS011;2228;48.140;11.488;2024-02-15T09:45:25;2.30;;;1.13;;
4430;SDS011;2228;48.140;11.488;2024-02-15T09:47:57;3.00;;;1.20;;
4430;SDS011;2228;48.140;11.488;2024-02-15T09:50:30;6.10;;;1.90;;
4430;SDS011;2228;48.140;11.488;2024-02-15T09:53:01;4.13;;;1.40;;
4430;SDS011;2228;48.140;11.488;2024-02-15T09:55:29;3.33;;;1.90;;
4430;SDS011;2228;48.140;11.488;2024-02-15T09:57:56;2.10;;;1.10;;
4430;SDS011;2228;48.140;11.488;2024-02-15T10:00:25;3.00;;;0.90;;
4430;SDS011;2228;48.140;11.488;2024-02-15T10:02:52;1.65;;;0.80;;
4430;SDS011;2228;48.140;11.488;2024-02-15T10:05:21;1.00;;;0.82;;
4430;SDS011;2228;48.140;11.488;2024-02-15T10:07:48;6.78;;;1.20;;
4430;SDS011;2228;48.140;11.488;2024-02-15T10:10:18;2.75;;;0.80;;
4430;SDS011;2228;48.140;11.488;2024-02-15T10:12:46;2.73;;;0.70;;
4430;SDS011;2228;48.140;11.488;2024-02-15T10:15:26;1.50;;;0.70;;
4430;SDS011;2228;48.140;11.488;2024-02-15T10:17:54;1.00;;;0.70;;
4430;SDS011;2228;48.140;11.488;2024-02-15T10:20:23;3.30;;;0.90;;
4430;SDS011;2228;48.140;11.488;2024-02-15T10:22:51;1.23;;;0.80;;
4430;SDS011;2228;48.140;11.488;2024-02-15T10:25:22;2.20;;;0.70;;
4430;SDS011;2228;48.140;11.488;2024-02-15T10:27:49;1.03;;;0.70;;
4430;SDS011;2228;48.140;11.488;2024-02-15T10:30:17;2.20;;;0.80;;
4430;SDS011;2228;48.140;11.488;2024-02-15T10:32:45;3.00;;;0.90;;
4430;SDS011;2228;48.140;11.488;2024-02-15T10:35:22;2.50;;;0.90;;
4430;SDS011;2228;48.140;11.488;2024-02-15T10:37:50;3.90;;;0.82;;
4430;SDS011;2228;48.140;11.488;2024-02-15T10:40:18;1.42;;;0.85;;
4430;SDS011;2228;48.140;11.488;2024-02-15T10:42:47;3.03;;;0.90;;
4430;SDS011;2228;48.140;11.488;2024-02-15T10:45:15;2.80;;;0.70;;
4430;SDS011;2228;48.140;11.488;2024-02-15T10:47:44;3.30;;;0.80;;
4430;SDS011;2228;48.140;11.488;2024-02-15T10:50:12;2.15;;;0.80;;
4430;SDS011;2228;48.140;11.488;2024-02-15T10:52:43;2.88;;;0.80;;
4430;SDS011;2228;48.140;11.488;2024-02-15T10:55:11;2.50;;;0.80;;
4430;SDS011;2228;48.140;11.488;2024-02-15T10:57:41;2.40;;;0.80;;
4430;SDS011;2228;48.140;11.488;2024-02-15T11:00:13;1.90;;;0.70;;
4430;SDS011;2228;48.140;11.488;2024-02-15T11:02:48;2.03;;;0.70;;
4430;SDS011;2228;48.140;11.488;2024-02-15T11:05:18;2.70;;;0.70;;
4430;SDS011;2228;48.140;11.488;2024-02-15T11:07:49;1.60;;;0.70;;
4430;SDS011;2228;48.140;11.488;2024-02-15T11:10:18;1.70;;;0.80;;
4430;SDS011;2228;48.140;11.488;2024-02-15T11:12:46;1.52;;;0.80;;
4430;SDS011;2228;48.140;11.488;2024-02-15T11:15:27;2.60;;;0.68;;
4430;SDS011;2228;48.140;11.488;2024-02-15T11:18:07;0.85;;;0.70;;
4430;SDS011;2228;48.140;11.488;2024-02-15T11:20:47;1.80;;;0.70;;
4430;SDS011;2228;48.140;11.488;2024-02-15T11:23:25;3.30;;;0.90;;
4430;SDS011;2228;48.140;11.488;2024-02-15T11:25:53;3.10;;;1.00;;
4430;SDS011;2228;48.140;11.488;2024-02-15T11:28:37;1.40;;;0.80;;
4430;SDS011;2228;48.140;11.488;2024-02-15T11:31:07;1.30;;;0.80;;
4430;SDS011;2228;48.140;11.488;2024-02-15T11:33:38;2.10;;;0.70;;
4430;SDS011;2228;48.140;11.488;2024-02-15T11:36:05;3.40;;;0.70;;
4430;SDS011;2228;48.140;11.488;2024-02-15T11:38:33;1.20;;;0.80;;
4430;SDS011;2228;48.140;11.488;2024-02-15T11:41:01;2.50;;;0.70;;
4430;SDS011;2228;48.140;11.488;2024-02-15T11:43:45;1.90;;;0.75;;
4430;SDS011;2228;48.140;11.488;2024-02-15T11:46:16;2.70;;;1.00;;
4430;SDS011;2228;48.140;11.488;2024-02-15T11:48:44;3.10;;;0.80;;
4430;SDS011;2228;48.140;11.488;2024-02-15T11:51:24;2.40;;;0.70;;
4430;SDS011;2228;48.140;11.488;2024-02-15T11:53:58;2.10;;;1.10;;
4430;SDS011;2228;48.140;11.488;2024-02-15T11:56:26;3.60;;;0.80;;
4430;SDS011;2228;48.140;11.488;2024-02-15T11:59:03;2.50;;;0.70;;
4430;SDS011;2228;48.140;11.488;2024-02-15T12:01:32;1.70;;;0.70;;
4430;SDS011;2228;48.140;11.488;2024-02-15T12:04:20;1.23;;;0.80;;
4430;SDS011;2228;48.140;11.488;2024-02-15T12:07:05;0.85;;;0.70;;
4430;SDS011;2228;48.140;11.488;2024-02-15T12:09:57;3.80;;;0.80;;
4430;SDS011;2228;48.140;11.488;2024-02-15T12:12:50;1.00;;;0.90;;
4430;SDS011;2228;48.140;11.488;2024-02-15T12:15:35;1.90;;;0.80;;
4430;SDS011;2228;48.140;11.488;2024-02-15T12:18:21;4.32;;;1.00;;
4430;SDS011;2228;48.140;11.488;2024-02-15T12:21:08;1.45;;;0.70;;
4430;SDS011;2228;48.140;11.488;2024-02-15T12:23:37;2.97;;;1.00;;
4430;SDS011;2228;48.140;11.488;2024-02-15T12:26:06;2.00;;;0.90;;
4430;SDS011;2228;48.140;11.488;2024-02-15T12:28:34;3.30;;;0.80;;
4430;SDS011;2228;48.140;11.488;2024-02-15T12:31:01;3.05;;;0.80;;
4430;SDS011;2228;48.140;11.488;2024-02-15T12:33:33;5.63;;;0.80;;
4430;SDS011;2228;48.140;11.488;2024-02-15T12:36:04;2.47;;;0.70;;
4430;SDS011;2228;48.140;11.488;2024-02-15T12:38:31;2.00;;;0.80;;
4430;SDS011;2228;48.140;11.488;2024-02-15T12:41:03;4.00;;;0.70;;
4430;SDS011;2228;48.140;11.488;2024-02-15T12:43:30;1.13;;;0.70;;
4430;SDS011;2228;48.140;11.488;2024-02-15T12:45:58;0.90;;;0.70;;
4430;SDS011;2228;48.140;11.488;2024-02-15T12:48:26;2.10;;;0.60;;
4430;SDS011;2228;48.140;11.488;2024-02-15T12:50:55;2.38;;;0.80;;
4430;SDS011;2228;48.140;11.488;2024-02-15T12:53:23;0.90;;;0.70;;
4430;SDS011;2228;48.140;11.488;2024-02-15T12:55:52;1.88;;;0.80;;
4430;SDS011;2228;48.140;11.488;2024-02-15T12:58:21;1.90;;;0.80;;
4430;SDS011;2228;48.140;11.488;2024-02-15T13:00:54;8.07;;;1.07;;
4430;SDS011;2228;48.140;11.488;2024-02-15T13:03:29;2.10;;;0.95;;
4430;SDS011;2228;48.140;11.488;2024-02-15T13:06:07;2.67;;;0.80;;
4430;SDS011;2228;48.140;11.488;2024-02-15T13:08:34;2.10;;;0.77;;
4430;SDS011;2228;48.140;11.488;2024-02-15T13:11:03;3.10;;;0.77;;
4430;SDS011;2228;48.140;11.488;2024-02-15T13:13:31;1.50;;;0.80;;
4430;SDS011;2228;48.140;11.488;2024-02-15T13:16:00;2.78;;;0.70;;
4430;SDS011;2228;48.140;11.488;2024-02-15T13:18:27;3.50;;;0.80;;
4430;SDS011;2228;48.140;11.488;2024-02-15T13:20:55;1.40;;;0.70;;
4430;SDS011;2228;48.140;11.488;2024-02-15T13:23:23;1.90;;;0.70;;
4430;SDS011;2228;48.140;11.488;2024-02-15T13:25:51;3.20;;;0.80;;
4430;SDS011;2228;48.140;11.488;2024-02-15T13:28:21;1.20;;;0.80;;
4430;SDS011;2228;48.140;11.488;2024-02-15T13:30:50;1.10;;;0.70;;
4430;SDS011;2228;48.140;11.488;2024-02-15T13:33:21;1.15;;;0.73;;
4430;SDS011;2228;48.140;11.488;2024-02-15T13:35:49;2.50;;;0.90;;
4430;SDS011;2228;48.140;11.488;2024-02-15T13:38:16;1.30;;;0.70;;
4430;SDS011;2228;48.140;11.488;2024-02-15T13:40:49;1.90;;;0.80;;
4430;SDS011;2228;48.140;11.488;2024-02-15T13:43:17;2.47;;;0.80;;
4430;SDS011;2228;48.140;11.488;2024-02-15T13:45:45;1.08;;;0.80;;
4430;SDS011;2228;48.140;11.488;2024-02-15T13:48:13;3.95;;;0.90;;
4430;SDS011;2228;48.140;11.488;2024-02-15T13:50:41;1.00;;;0.73;;
4430;SDS011;2228;48.140;11.488;2024-02-15T13:53:10;2.40;;;0.80;;
4430;SDS011;2228;48.140;11.488;2024-02-15T13:55:38;4.47;;;0.90;;
4430;SDS011;2228;48.140;11.488;2024-02-15T13:58:08;1.77;;;0.90;;
4430;SDS011;2228;48.140;11.488;2024-02-15T14:00:37;2.13;;;0.70;;
4430;SDS011;2228;48.140;11.488;2024-02-15T14:03:07;1.90;;;0.70;;
4430;SDS011;2228;48.140;11.488;2024-02-15T14:05:35;1.53;;;0.70;;
4430;SDS011;2228;48.140;11.488;2024-02-15T14:08:05;1.40;;;0.90;;
4430;SDS011;2228;48.140;11.488;2024-02-15T14:10:34;1.13;;;0.70;;
4430;SDS011;2228;48.140;11.488;2024-02-15T14:13:02;3.80;;;0.90;;
4430;SDS011;2228;48.140;11.488;2024-02-15T14:15:32;1.58;;;0.75;;
4430;SDS011;2228;48.140;11.488;2024-02-15T14:18:02;1.60;;;0.80;;
4430;SDS011;2228;48.140;11.488;2024-02-15T14:20:30;2.00;;;0.80;;
4430;SDS011;2228;48.140;11.488;2024-02-15T14:22:57;3.40;;;0.80;;
4430;SDS011;2228;48.140;11.488;2024-02-15T14:25:30;2.63;;;0.80;;
4430;SDS011;2228;48.140;11.488;2024-02-15T14:27:57;4.10;;;0.90;;
4430;SDS011;2228;48.140;11.488;2024-02-15T14:30:27;2.10;;;0.80;;
4430;SDS011;2228;48.140;11.488;2024-02-15T14:33:13;2.00;;;0.70;;
4430;SDS011;2228;48.140;11.488;2024-02-15T14:35:44;1.40;;;0.90;;
4430;SDS011;2228;48.140;11.488;2024-02-15T14:38:12;2.35;;;1.20;;
4430;SDS011;2228;48.140;11.488;2024-02-15T14:40:41;2.60;;;1.05;;
4430;SDS011;2228;48.140;11.488;2024-02-15T14:43:12;2.70;;;1.00;;
4430;SDS011;2228;48.140;11.488;2024-02-15T14:45:40;3.63;;;0.95;;
4430;SDS011;2228;48.140;11.488;2024-02-15T14:48:07;1.17;;;0.80;;
4430;SDS011;2228;48.140;11.488;2024-02-15T14:50:37;2.20;;;1.00;;
4430;SDS011;2228;48.140;11.488;2024-02-15T14:53:04;2.03;;;1.00;;
4430;SDS011;2228;48.140;11.488;2024-02-15T14:55:33;2.37;;;0.90;;
4430;SDS011;2228;48.140;11.488;2024-02-15T14:58:00;4.20;;;0.90;;
4430;SDS011;2228;48.140;11.488;2024-02-15T15:00:28;2.17;;;1.00;;
4430;SDS011;2228;48.140;11.488;2024-02-15T15:02:55;3.00;;;1.08;;
4430;SDS011;2228;48.140;11.488;2024-02-15T15:05:23;6.33;;;1.00;;
4430;SDS011;2228;48.140;11.488;2024-02-15T15:08:09;3.40;;;1.20;;
4430;SDS011;2228;48.140;11.488;2024-02-15T15:10:54;2.90;;;1.00;;
4430;SDS011;2228;48.140;11.488;2024-02-15T15:13:39;3.05;;;0.98;;
4430;SDS011;2228;48.140;11.488;2024-02-15T15:16:07;3.10;;;1.00;;
4430;SDS011;2228;48.140;11.488;2024-02-15T15:18:39;1.45;;;0.80;;
4430;SDS011;2228;48.140;11.488;2024-02-15T15:21:06;1.95;;;1.00;;